Weather at Daniel K Inouye International Airport

Public forecast

Using degrees Fahrenheit for public forecast. Weather courtesy of forecast.io.

Current aviation weather report (METAR) for Daniel K Inouye International Airport

Retrieved 2021/10/22 04:53 UTC (46 minutes ago):

PHNL 220453Z 08007KT 10SM FEW024 SCT045 BKN060 25/19 A3002

Aviation forecast (TAF) for Daniel K Inouye International Airport

Retrieved 2021-10-22 00:42 UTC (5 hours ago):

TAF PHNL 212339Z 2200/2306 05009G16KT P6SM FEW025 SCT040 FM220400 06009KT P6SM SCT025 OVC045 FM222100 07013G19KT P6SM SCT025 SCT045 FM230500 06010KT P6SM SCT025 SCT045